Time;durP1;ratioP1;P1;durP2;ratioP2;P2;SDS_P1;SDS_P2;PMS_P1;PMS_P2;Temp;Humidity;BMP_temperature;BMP_pressure;BME280_temperature;BME280_humidity;BME280_pressure;Samples;Min_cycle;Max_cycle;Signal;HPM_P1;HPM_P2
2022/03/05 00:01:04;;;;;;;27.00;15.00;;;;;;;;;;5065715;27;98773;-67
2022/03/05 00:03:30;;;;;;;24.92;14.05;;;;;;;;;;5065279;27;99861;-67
2022/03/05 00:05:57;;;;;;;23.70;15.07;;;;;;;;;;5059860;27;100388;-67
2022/03/05 00:08:23;;;;;;;22.77;13.75;;;;;;;;;;5054962;27;99138;-67
2022/03/05 00:10:50;;;;;;;27.85;14.75;;;;;;;;;;5068223;27;100042;-67
2022/03/05 00:13:16;;;;;;;22.83;14.65;;;;;;;;;;5067149;27;99292;-67
2022/03/05 00:15:43;;;;;;;21.58;14.00;;;;;;;;;;5068405;27;99810;-67
2022/03/05 00:18:09;;;;;;;23.10;14.02;;;;;;;;;;5065422;27;100646;-66
2022/03/05 00:20:36;;;;;;;20.70;12.98;;;;;;;;;;5064139;27;101390;-67
2022/03/05 00:23:02;;;;;;;22.38;13.13;;;;;;;;;;5063287;27;99972;-67
2022/03/05 00:25:29;;;;;;;28.70;15.90;;;;;;;;;;5066336;27;99835;-68
2022/03/05 00:27:55;;;;;;;26.10;16.13;;;;;;;;;;5067347;27;98619;-67
2022/03/05 00:30:22;;;;;;;26.13;14.90;;;;;;;;;;5053974;27;99155;-67
2022/03/05 00:32:48;;;;;;;28.70;15.32;;;;;;;;;;5063528;27;100886;-67
2022/03/05 00:35:15;;;;;;;23.77;14.63;;;;;;;;;;5067348;27;98866;-67
2022/03/05 00:37:41;;;;;;;25.85;15.55;;;;;;;;;;5070196;27;99414;-67
2022/03/05 00:40:09;;;;;;;27.45;15.35;;;;;;;;;;5070556;27;98829;-67
2022/03/05 00:42:36;;;;;;;22.13;14.65;;;;;;;;;;5066466;27;100346;-67
2022/03/05 00:45:02;;;;;;;26.50;15.23;;;;;;;;;;5056572;27;101190;-67
2022/03/05 00:47:29;;;;;;;27.73;15.77;;;;;;;;;;5050378;27;98635;-67
2022/03/05 00:49:55;;;;;;;24.40;15.15;;;;;;;;;;5057391;27;100072;-67
2022/03/05 00:52:22;;;;;;;25.33;15.68;;;;;;;;;;5067127;27;100607;-67
2022/03/05 00:54:48;;;;;;;29.13;15.25;;;;;;;;;;5069366;27;99030;-67
2022/03/05 00:57:15;;;;;;;27.88;16.00;;;;;;;;;;5072813;27;100335;-67
2022/03/05 00:59:41;;;;;;;28.08;15.73;;;;;;;;;;5051279;27;98751;-67
2022/03/05 01:02:08;;;;;;;27.42;15.85;;;;;;;;;;5050401;27;99235;-67
2022/03/05 01:04:35;;;;;;;23.65;14.55;;;;;;;;;;5050789;27;100173;-67
2022/03/05 01:07:02;;;;;;;24.50;15.10;;;;;;;;;;5061565;27;98620;-67
2022/03/05 01:09:28;;;;;;;27.17;15.88;;;;;;;;;;5070612;27;99939;-67
2022/03/05 01:11:55;;;;;;;26.42;16.17;;;;;;;;;;5068229;27;100053;-67
2022/03/05 01:14:21;;;;;;;28.48;14.50;;;;;;;;;;5061167;27;99333;-67
2022/03/05 01:16:47;;;;;;;22.73;15.23;;;;;;;;;;5052161;27;99526;-67
2022/03/05 01:19:14;;;;;;;26.23;15.57;;;;;;;;;;5058848;27;100329;-67
2022/03/05 01:21:40;;;;;;;26.77;15.65;;;;;;;;;;5052127;27;100339;-67
2022/03/05 01:24:06;;;;;;;25.00;14.05;;;;;;;;;;5067842;27;99293;-67
2022/03/05 01:26:33;;;;;;;25.58;15.27;;;;;;;;;;5068758;27;97863;-67
2022/03/05 01:28:59;;;;;;;28.65;16.55;;;;;;;;;;5049554;27;98552;-67
2022/03/05 01:31:25;;;;;;;24.65;14.30;;;;;;;;;;5049637;27;100896;-67
2022/03/05 01:33:52;;;;;;;24.40;15.00;;;;;;;;;;5064995;27;99728;-67
2022/03/05 01:36:18;;;;;;;24.75;14.68;;;;;;;;;;5069563;27;101464;-67
2022/03/05 01:38:44;;;;;;;25.80;15.95;;;;;;;;;;5062109;27;100188;-67
2022/03/05 01:41:11;;;;;;;23.95;15.00;;;;;;;;;;5071457;27;98673;-67
2022/03/05 01:43:37;;;;;;;27.45;14.98;;;;;;;;;;5068241;27;99485;-67
2022/03/05 01:46:04;;;;;;;27.92;15.35;;;;;;;;;;5069727;27;98506;-67
2022/03/05 01:48:31;;;;;;;29.67;16.02;;;;;;;;;;5066718;27;102581;-67
2022/03/05 01:50:58;;;;;;;26.67;15.40;;;;;;;;;;5069628;27;98453;-67
2022/03/05 01:53:24;;;;;;;25.00;16.20;;;;;;;;;;5067447;27;99110;-67
2022/03/05 01:55:52;;;;;;;28.10;15.45;;;;;;;;;;5062386;27;99045;-67
2022/03/05 01:58:18;;;;;;;30.45;15.65;;;;;;;;;;5062021;27;101349;-67
2022/03/05 02:00:45;;;;;;;30.20;16.08;;;;;;;;;;5067175;27;98611;-67
2022/03/05 02:03:11;;;;;;;24.30;14.55;;;;;;;;;;5064789;27;99195;-67
2022/03/05 02:05:38;;;;;;;27.50;15.75;;;;;;;;;;5061712;27;100426;-68
2022/03/05 02:08:05;;;;;;;27.60;15.55;;;;;;;;;;5059524;27;100032;-67
2022/03/05 02:10:31;;;;;;;35.47;16.40;;;;;;;;;;5062007;27;100199;-67
2022/03/05 02:12:58;;;;;;;23.10;15.40;;;;;;;;;;5061259;27;100174;-67
2022/03/05 02:15:24;;;;;;;23.17;15.25;;;;;;;;;;5058726;27;100529;-67
2022/03/05 02:17:51;;;;;;;29.92;16.08;;;;;;;;;;5061984;27;101794;-67
2022/03/05 02:20:17;;;;;;;26.52;15.98;;;;;;;;;;5058770;27;99031;-67
2022/03/05 02:22:43;;;;;;;28.40;14.63;;;;;;;;;;5062133;27;100156;-67
2022/03/05 02:25:10;;;;;;;27.60;15.50;;;;;;;;;;5061403;27;100749;-67
2022/03/05 02:27:36;;;;;;;24.63;14.25;;;;;;;;;;5059759;27;99215;-67
2022/03/05 02:30:02;;;;;;;30.88;16.38;;;;;;;;;;5058157;27;100323;-67
2022/03/05 02:32:29;;;;;;;27.63;15.68;;;;;;;;;;5058403;27;99581;-67
2022/03/05 02:34:55;;;;;;;27.92;15.98;;;;;;;;;;5060516;27;100376;-67
2022/03/05 02:37:22;;;;;;;26.65;15.82;;;;;;;;;;5057875;27;99483;-67
2022/03/05 02:39:48;;;;;;;28.15;16.45;;;;;;;;;;5063106;27;99179;-67
2022/03/05 02:42:15;;;;;;;30.05;16.23;;;;;;;;;;5060198;27;100363;-67
2022/03/05 02:44:42;;;;;;;31.35;16.55;;;;;;;;;;5062280;27;99743;-67
2022/03/05 02:47:09;;;;;;;32.15;17.02;;;;;;;;;;5057593;27;100246;-67
2022/03/05 02:49:36;;;;;;;33.33;15.95;;;;;;;;;;5064148;27;100259;-67
2022/03/05 02:52:03;;;;;;;26.60;14.75;;;;;;;;;;5062256;27;98824;-67
2022/03/05 02:54:29;;;;;;;30.30;16.33;;;;;;;;;;5059960;27;100068;-67
2022/03/05 02:56:55;;;;;;;28.35;16.05;;;;;;;;;;5058076;27;100706;-67
2022/03/05 02:59:25;;;;;;;30.75;16.10;;;;;;;;;;5058921;27;99917;-67
2022/03/05 03:01:51;;;;;;;28.35;16.50;;;;;;;;;;5061241;27;99736;-67
2022/03/05 03:04:18;;;;;;;27.33;16.00;;;;;;;;;;5058676;27;100632;-67
2022/03/05 03:06:44;;;;;;;31.38;16.13;;;;;;;;;;5065456;27;98841;-67
2022/03/05 03:09:11;;;;;;;32.05;16.50;;;;;;;;;;5058746;27;100721;-67
2022/03/05 03:11:38;;;;;;;32.92;16.58;;;;;;;;;;5056179;27;101061;-67
2022/03/05 03:14:04;;;;;;;28.25;15.40;;;;;;;;;;5058706;27;100777;-67
2022/03/05 03:16:31;;;;;;;27.30;15.85;;;;;;;;;;5057195;27;100365;-67
2022/03/05 03:18:57;;;;;;;27.00;16.90;;;;;;;;;;5055311;27;100110;-67
2022/03/05 03:21:24;;;;;;;34.63;17.55;;;;;;;;;;5058185;27;99406;-67
2022/03/05 03:23:50;;;;;;;30.02;16.83;;;;;;;;;;5058174;27;99453;-67
2022/03/05 03:26:16;;;;;;;23.42;16.25;;;;;;;;;;5056240;27;98917;-67
2022/03/05 03:28:43;;;;;;;25.95;15.75;;;;;;;;;;5061754;27;100135;-67
2022/03/05 03:31:09;;;;;;;32.50;16.67;;;;;;;;;;5061168;27;99136;-67
2022/03/05 03:33:36;;;;;;;32.75;17.02;;;;;;;;;;5057983;27;99719;-67
2022/03/05 03:36:03;;;;;;;33.20;17.17;;;;;;;;;;5056294;27;100911;-67
2022/03/05 03:38:29;;;;;;;29.27;15.13;;;;;;;;;;5062084;27;98964;-67
2022/03/05 03:40:56;;;;;;;32.58;18.73;;;;;;;;;;5054728;27;100533;-67
2022/03/05 03:43:22;;;;;;;30.30;16.92;;;;;;;;;;5058682;27;100270;-67
2022/03/05 03:45:49;;;;;;;29.65;15.70;;;;;;;;;;5056765;27;99229;-67
2022/03/05 03:48:15;;;;;;;31.55;17.58;;;;;;;;;;5055561;27;99590;-67
2022/03/05 03:50:41;;;;;;;32.50;17.90;;;;;;;;;;5061474;27;99411;-67
2022/03/05 03:53:08;;;;;;;33.65;19.00;;;;;;;;;;5059266;27;99772;-67
2022/03/05 03:55:35;;;;;;;33.92;17.77;;;;;;;;;;5059831;27;99856;-67
2022/03/05 03:58:01;;;;;;;32.88;17.75;;;;;;;;;;5057916;27;100182;-67
2022/03/05 04:00:27;;;;;;;32.72;17.60;;;;;;;;;;5057509;27;103402;-67
2022/03/05 04:02:54;;;;;;;31.15;17.83;;;;;;;;;;5060925;27;100971;-67
2022/03/05 04:05:21;;;;;;;35.78;16.75;;;;;;;;;;5057238;27;100225;-67
2022/03/05 04:10:32;;;;;;;33.72;18.25;;;;;;;;;;5062006;27;100108;-67
2022/03/05 04:12:58;;;;;;;33.33;17.63;;;;;;;;;;5063113;27;99184;-67
2022/03/05 04:15:25;;;;;;;30.58;16.95;;;;;;;;;;5061333;27;101289;-67
2022/03/05 04:17:51;;;;;;;35.47;19.23;;;;;;;;;;5062370;27;98290;-67
2022/03/05 04:20:18;;;;;;;34.47;18.38;;;;;;;;;;5057484;27;100076;-67
2022/03/05 04:22:44;;;;;;;33.28;17.00;;;;;;;;;;5061627;27;100476;-67
2022/03/05 04:25:10;;;;;;;40.25;18.60;;;;;;;;;;5060323;27;100030;-67
2022/03/05 04:27:37;;;;;;;34.15;18.42;;;;;;;;;;5062649;27;100036;-67
2022/03/05 04:30:04;;;;;;;35.63;18.15;;;;;;;;;;5061410;27;100422;-67
2022/03/05 04:32:31;;;;;;;38.25;18.10;;;;;;;;;;5061217;27;100379;-67
2022/03/05 04:34:58;;;;;;;32.47;17.65;;;;;;;;;;5064196;27;101016;-67
2022/03/05 04:37:24;;;;;;;30.83;16.42;;;;;;;;;;5060933;27;99098;-67
2022/03/05 04:39:50;;;;;;;31.92;17.77;;;;;;;;;;5060471;27;99636;-67
2022/03/05 04:42:16;;;;;;;35.80;19.33;;;;;;;;;;5060865;27;99244;-67
2022/03/05 04:44:43;;;;;;;38.15;20.23;;;;;;;;;;5062900;27;100508;-67
2022/03/05 04:47:10;;;;;;;34.80;17.45;;;;;;;;;;5064155;27;99905;-67
2022/03/05 04:49:37;;;;;;;35.45;18.42;;;;;;;;;;5060555;27;102048;-67
2022/03/05 04:52:03;;;;;;;37.47;19.58;;;;;;;;;;5063517;27;100034;-67
2022/03/05 04:54:30;;;;;;;31.48;18.15;;;;;;;;;;5067900;27;100210;-67
2022/03/05 04:56:57;;;;;;;43.13;20.77;;;;;;;;;;5061194;27;99178;-67
2022/03/05 04:59:23;;;;;;;45.50;20.70;;;;;;;;;;5061286;27;99662;-67
2022/03/05 05:01:49;;;;;;;36.88;18.70;;;;;;;;;;5060267;27;99556;-67
2022/03/05 05:04:16;;;;;;;34.55;19.15;;;;;;;;;;5060916;27;98934;-67
2022/03/05 05:06:42;;;;;;;33.95;18.60;;;;;;;;;;5062560;27;100130;-67
2022/03/05 05:09:09;;;;;;;32.90;16.63;;;;;;;;;;5060696;27;100538;-67
2022/03/05 05:11:36;;;;;;;37.00;18.80;;;;;;;;;;5062295;27;99802;-67
2022/03/05 05:14:02;;;;;;;39.88;20.20;;;;;;;;;;5061723;27;100912;-67
2022/03/05 05:16:29;;;;;;;38.60;17.80;;;;;;;;;;5063950;27;100472;-67
2022/03/05 05:21:41;;;;;;;43.72;20.13;;;;;;;;;;5063414;27;100207;-67
2022/03/05 05:24:08;;;;;;;32.47;17.58;;;;;;;;;;5060074;27;98656;-67
2022/03/05 05:26:34;;;;;;;41.08;19.90;;;;;;;;;;5063189;27;99266;-67
2022/03/05 05:29:00;;;;;;;36.55;19.65;;;;;;;;;;5059707;27;99477;-67
2022/03/05 05:31:27;;;;;;;36.88;20.45;;;;;;;;;;5059182;27;99296;-67
2022/03/05 05:33:53;;;;;;;40.92;19.67;;;;;;;;;;5060278;27;100068;-67
2022/03/05 05:36:19;;;;;;;36.10;19.80;;;;;;;;;;5060373;27;100157;-67
2022/03/05 05:38:46;;;;;;;41.80;20.20;;;;;;;;;;5063869;27;101018;-67
2022/03/05 05:41:12;;;;;;;40.72;19.90;;;;;;;;;;5058858;27;100333;-67
2022/03/05 05:43:39;;;;;;;41.85;22.15;;;;;;;;;;5059889;27;99975;-67
2022/03/05 05:46:05;;;;;;;39.30;20.00;;;;;;;;;;5061151;27;100488;-67
2022/03/05 05:48:55;;;;;;;38.58;20.63;;;;;;;;;;5059852;27;100181;-67
2022/03/05 05:51:21;;;;;;;44.03;20.52;;;;;;;;;;5062137;27;100330;-67
2022/03/05 05:53:53;;;;;;;46.45;20.20;;;;;;;;;;5059654;27;100102;-67
2022/03/05 05:56:20;;;;;;;38.75;20.58;;;;;;;;;;5062098;27;99683;-67
2022/03/05 05:58:48;;;;;;;37.03;20.38;;;;;;;;;;5062171;27;99502;-67
2022/03/05 06:01:17;;;;;;;45.15;22.25;;;;;;;;;;5061841;27;100782;-67
2022/03/05 06:03:45;;;;;;;38.42;20.63;;;;;;;;;;5059982;27;99392;-67
2022/03/05 06:06:12;;;;;;;43.75;20.88;;;;;;;;;;5061538;27;100774;-67
2022/03/05 06:08:38;;;;;;;44.47;20.23;;;;;;;;;;5061386;27;100694;-67
2022/03/05 06:11:05;;;;;;;45.47;21.30;;;;;;;;;;5059247;27;98721;-67
2022/03/05 06:13:31;;;;;;;44.65;20.75;;;;;;;;;;5065363;27;100635;-67
2022/03/05 06:15:57;;;;;;;41.10;21.40;;;;;;;;;;5062312;27;100194;-67
2022/03/05 06:18:24;;;;;;;40.78;20.98;;;;;;;;;;5066742;27;98592;-67
2022/03/05 06:20:54;;;;;;;41.40;21.00;;;;;;;;;;5058646;27;99210;-66
2022/03/05 06:23:21;;;;;;;45.47;20.33;;;;;;;;;;5068836;27;100257;-66
2022/03/05 06:25:47;;;;;;;39.33;21.48;;;;;;;;;;5069694;27;100395;-66
2022/03/05 06:28:14;;;;;;;43.88;20.65;;;;;;;;;;5060737;27;99999;-66
2022/03/05 06:30:40;;;;;;;33.50;16.90;;;;;;;;;;5049952;27;98710;-66
2022/03/05 06:33:06;;;;;;;41.08;20.55;;;;;;;;;;5066837;27;100080;-66
2022/03/05 06:35:33;;;;;;;49.72;21.25;;;;;;;;;;5068649;27;100556;-66
2022/03/05 06:38:00;;;;;;;42.72;20.77;;;;;;;;;;5061307;27;99975;-66
2022/03/05 06:40:27;;;;;;;40.10;20.50;;;;;;;;;;5048897;27;99972;-66
2022/03/05 06:42:55;;;;;;;41.70;21.75;;;;;;;;;;5065868;27;100246;-66
2022/03/05 06:45:21;;;;;;;41.47;20.10;;;;;;;;;;5073123;27;97860;-66
2022/03/05 06:47:48;;;;;;;41.08;21.35;;;;;;;;;;5069199;27;100479;-66
2022/03/05 06:50:14;;;;;;;42.97;22.15;;;;;;;;;;5067148;27;98888;-66
2022/03/05 06:52:41;;;;;;;37.53;20.35;;;;;;;;;;5068248;27;99536;-65
2022/03/05 06:55:08;;;;;;;39.30;20.73;;;;;;;;;;5068695;27;100374;-67
2022/03/05 06:57:35;;;;;;;37.53;18.83;;;;;;;;;;5066843;27;98590;-66
2022/03/05 07:00:02;;;;;;;38.85;18.55;;;;;;;;;;5068301;27;99963;-66
2022/03/05 07:02:28;;;;;;;43.58;21.10;;;;;;;;;;5068662;27;100486;-66
2022/03/05 07:04:55;;;;;;;44.33;18.45;;;;;;;;;;5071878;27;99893;-66
2022/03/05 07:07:21;;;;;;;39.65;20.67;;;;;;;;;;5067862;27;100720;-66
2022/03/05 07:09:48;;;;;;;41.75;20.88;;;;;;;;;;5062844;27;97842;-66
2022/03/05 07:12:14;;;;;;;35.90;16.98;;;;;;;;;;5047281;27;98554;-67
2022/03/05 07:14:42;;;;;;;40.30;19.27;;;;;;;;;;5047055;27;100256;-67
2022/03/05 07:17:08;;;;;;;36.70;18.30;;;;;;;;;;5045861;27;99827;-67
2022/03/05 07:19:34;;;;;;;45.00;19.58;;;;;;;;;;5047577;27;100056;-67
2022/03/05 07:22:01;;;;;;;44.15;20.60;;;;;;;;;;5047191;27;100679;-67
2022/03/05 07:24:27;;;;;;;37.42;19.00;;;;;;;;;;5051704;27;98590;-67
2022/03/05 07:26:53;;;;;;;38.97;20.10;;;;;;;;;;5071136;27;99959;-67
2022/03/05 07:29:20;;;;;;;36.83;16.52;;;;;;;;;;5068171;27;98565;-67
2022/03/05 07:31:46;;;;;;;39.38;18.10;;;;;;;;;;5067282;27;100061;-66
2022/03/05 07:34:13;;;;;;;32.95;17.02;;;;;;;;;;5067776;27;98592;-66
2022/03/05 07:36:39;;;;;;;34.50;19.65;;;;;;;;;;5068817;27;98584;-66
2022/03/05 07:39:07;;;;;;;33.80;18.27;;;;;;;;;;5048641;27;100246;-67
2022/03/05 07:41:36;;;;;;;38.50;19.85;;;;;;;;;;5061906;27;100380;-67
2022/03/05 07:44:03;;;;;;;22.95;12.00;;;;;;;;;;5067653;27;98538;-67
2022/03/05 07:46:29;;;;;;;41.05;21.10;;;;;;;;;;5071156;27;99250;-67
2022/03/05 07:48:56;;;;;;;39.55;20.50;;;;;;;;;;5070698;27;99881;-68
2022/03/05 07:51:22;;;;;;;45.22;22.42;;;;;;;;;;5068725;27;101699;-69
2022/03/05 07:53:49;;;;;;;40.70;20.42;;;;;;;;;;5070930;27;100537;-67
2022/03/05 07:56:15;;;;;;;39.58;19.73;;;;;;;;;;5071328;27;98583;-67
2022/03/05 07:58:41;;;;;;;44.75;21.80;;;;;;;;;;5071952;27;99192;-67
2022/03/05 08:01:08;;;;;;;32.05;18.95;;;;;;;;;;5068435;27;98979;-67
2022/03/05 08:03:35;;;;;;;47.25;20.75;;;;;;;;;;5072254;27;98575;-67
2022/03/05 08:06:01;;;;;;;35.75;18.27;;;;;;;;;;5069051;27;99350;-67
2022/03/05 08:08:28;;;;;;;44.83;22.20;;;;;;;;;;5068997;27;100422;-67
2022/03/05 08:10:54;;;;;;;38.00;19.27;;;;;;;;;;5074101;27;98554;-67
2022/03/05 08:13:20;;;;;;;48.80;21.50;;;;;;;;;;5069831;27;99546;-67
2022/03/05 08:15:47;;;;;;;40.45;20.27;;;;;;;;;;5071126;27;98590;-66
2022/03/05 08:18:14;;;;;;;41.15;20.90;;;;;;;;;;5071419;27;99955;-66
2022/03/05 08:20:40;;;;;;;36.83;19.10;;;;;;;;;;5070008;27;100303;-66
2022/03/05 08:23:06;;;;;;;43.15;22.75;;;;;;;;;;5070099;27;98186;-67
2022/03/05 08:25:33;;;;;;;42.42;21.48;;;;;;;;;;5069149;27;99589;-67
2022/03/05 08:27:59;;;;;;;46.47;23.75;;;;;;;;;;5067527;27;99942;-67
2022/03/05 08:30:25;;;;;;;45.15;22.63;;;;;;;;;;5064665;27;100775;-67
2022/03/05 08:32:52;;;;;;;46.92;19.92;;;;;;;;;;5071236;27;99927;-67
2022/03/05 08:35:20;;;;;;;41.58;20.77;;;;;;;;;;5063006;27;101772;-67
2022/03/05 08:37:46;;;;;;;46.10;22.58;;;;;;;;;;5071574;27;99723;-67
2022/03/05 08:40:13;;;;;;;43.40;19.38;;;;;;;;;;5071438;27;100378;-67
2022/03/05 08:42:39;;;;;;;41.50;21.75;;;;;;;;;;5070066;27;98678;-67
2022/03/05 08:45:06;;;;;;;38.75;21.02;;;;;;;;;;5070572;27;99232;-67
2022/03/05 08:47:33;;;;;;;49.78;22.45;;;;;;;;;;5070796;27;99012;-67
2022/03/05 08:50:00;;;;;;;55.35;23.30;;;;;;;;;;5069607;27;98674;-67
2022/03/05 08:52:28;;;;;;;39.70;20.30;;;;;;;;;;5073768;27;100556;-67
2022/03/05 08:54:55;;;;;;;30.33;14.75;;;;;;;;;;5069451;27;100610;-66
2022/03/05 08:57:22;;;;;;;47.85;22.10;;;;;;;;;;5068451;27;99968;-66
2022/03/05 08:59:48;;;;;;;52.67;25.13;;;;;;;;;;5070121;27;99602;-66
2022/03/05 09:02:14;;;;;;;41.03;19.77;;;;;;;;;;5069497;27;98575;-67
2022/03/05 09:04:41;;;;;;;51.20;25.08;;;;;;;;;;5070683;27;100198;-67
2022/03/05 09:07:07;;;;;;;32.72;18.52;;;;;;;;;;5070356;27;100130;-67
2022/03/05 09:09:34;;;;;;;22.05;12.93;;;;;;;;;;5063356;27;98672;-67
2022/03/05 09:12:00;;;;;;;34.25;18.77;;;;;;;;;;5050616;27;100136;-67
2022/03/05 09:14:26;;;;;;;44.33;24.17;;;;;;;;;;5052847;27;100208;-68
2022/03/05 09:16:55;;;;;;;45.10;23.58;;;;;;;;;;5067336;27;100145;-67
2022/03/05 09:19:21;;;;;;;41.00;22.77;;;;;;;;;;5067163;27;101903;-67
2022/03/05 09:21:47;;;;;;;48.47;24.80;;;;;;;;;;5070544;27;98608;-66
2022/03/05 09:24:14;;;;;;;49.00;24.25;;;;;;;;;;5066552;27;99332;-67
2022/03/05 09:26:40;;;;;;;42.40;23.40;;;;;;;;;;5067462;27;100331;-67
2022/03/05 09:29:07;;;;;;;43.05;23.27;;;;;;;;;;5068786;27;100062;-67
2022/03/05 09:31:33;;;;;;;46.28;24.25;;;;;;;;;;5068835;27;99691;-66
2022/03/05 09:34:00;;;;;;;45.22;24.25;;;;;;;;;;5067633;27;99424;-68
2022/03/05 09:36:26;;;;;;;43.38;20.85;;;;;;;;;;5073357;27;98501;-66
2022/03/05 09:38:52;;;;;;;50.70;26.02;;;;;;;;;;5068160;27;100123;-67
2022/03/05 09:41:19;;;;;;;43.85;23.55;;;;;;;;;;5059462;27;98559;-67
2022/03/05 09:43:45;;;;;;;49.78;22.75;;;;;;;;;;5066425;27;100219;-67
2022/03/05 09:46:11;;;;;;;49.60;22.25;;;;;;;;;;5068730;27;100335;-68
2022/03/05 09:48:40;;;;;;;47.17;22.38;;;;;;;;;;5069398;27;99215;-68
2022/03/05 09:51:07;;;;;;;44.53;24.38;;;;;;;;;;5068857;27;100284;-67
2022/03/05 09:53:33;;;;;;;47.00;24.33;;;;;;;;;;5069402;27;100560;-68
2022/03/05 09:55:59;;;;;;;39.67;19.95;;;;;;;;;;5068370;27;99389;-67
2022/03/05 09:58:45;;;;;;;45.20;22.52;;;;;;;;;;5071058;27;100035;-67
2022/03/05 10:01:12;;;;;;;42.95;23.85;;;;;;;;;;5068571;27;97884;-67
2022/03/05 10:03:45;;;;;;;45.70;22.15;;;;;;;;;;5067673;27;98833;-66
2022/03/05 10:06:21;;;;;;;40.65;22.70;;;;;;;;;;5067406;27;100313;-67
2022/03/05 10:08:50;;;;;;;32.65;18.45;;;;;;;;;;5057869;27;99256;-67
2022/03/05 10:11:17;;;;;;;40.08;20.40;;;;;;;;;;5067974;27;99771;-68
2022/03/05 10:13:44;;;;;;;49.38;23.98;;;;;;;;;;5068836;27;100282;-68
2022/03/05 10:16:29;;;;;;;40.55;21.48;;;;;;;;;;5068789;27;98559;-69
2022/03/05 10:18:56;;;;;;;45.15;23.55;;;;;;;;;;5069338;27;100270;-69
2022/03/05 10:21:31;;;;;;;44.47;22.63;;;;;;;;;;5071153;27;99655;-66
2022/03/05 10:24:08;;;;;;;41.90;22.45;;;;;;;;;;5067576;27;99066;-66
2022/03/05 10:26:55;;;;;;;35.83;20.33;;;;;;;;;;5067584;27;98796;-68
2022/03/05 10:29:22;;;;;;;44.65;23.80;;;;;;;;;;5061327;27;98618;-66
2022/03/05 10:31:56;;;;;;;40.17;22.38;;;;;;;;;;5062819;27;100109;-66
2022/03/05 10:34:22;;;;;;;48.60;23.17;;;;;;;;;;5060861;27;101389;-67
2022/03/05 10:37:03;;;;;;;35.33;21.48;;;;;;;;;;5065001;27;100454;-67
2022/03/05 10:39:35;;;;;;;43.80;23.48;;;;;;;;;;5065726;27;100105;-66
2022/03/05 10:42:03;;;;;;;46.20;24.38;;;;;;;;;;5058891;27;101331;-66
2022/03/05 10:44:29;;;;;;;38.03;20.33;;;;;;;;;;5064434;27;100197;-66
2022/03/05 10:47:02;;;;;;;47.88;25.42;;;;;;;;;;5061399;27;100238;-67
2022/03/05 10:49:33;;;;;;;49.88;22.23;;;;;;;;;;5065657;27;98647;-68
2022/03/05 10:52:02;;;;;;;41.53;22.60;;;;;;;;;;5069643;27;99945;-68
2022/03/05 10:54:29;;;;;;;45.05;24.17;;;;;;;;;;5061065;27;99934;-67
2022/03/05 10:56:57;;;;;;;44.60;21.75;;;;;;;;;;5055220;27;99992;-69
2022/03/05 10:59:23;;;;;;;45.15;23.67;;;;;;;;;;5061492;27;100115;-67
2022/03/05 11:01:50;;;;;;;41.17;23.30;;;;;;;;;;5060422;27;99388;-67
2022/03/05 11:04:16;;;;;;;38.45;20.67;;;;;;;;;;5062825;27;100289;-68
2022/03/05 11:06:43;;;;;;;32.85;19.83;;;;;;;;;;5062660;27;99909;-67
2022/03/05 11:09:11;;;;;;;45.90;24.48;;;;;;;;;;5063196;27;100277;-67
2022/03/05 11:11:39;;;;;;;43.60;21.05;;;;;;;;;;5068817;27;100106;-67
2022/03/05 11:14:12;;;;;;;42.72;21.05;;;;;;;;;;5068009;27;100446;-67
2022/03/05 11:16:39;;;;;;;34.13;20.27;;;;;;;;;;5067694;27;97865;-67
2022/03/05 11:19:05;;;;;;;39.70;21.63;;;;;;;;;;5068025;27;99261;-67
2022/03/05 11:21:31;;;;;;;39.33;22.67;;;;;;;;;;5068643;27;100409;-67
2022/03/05 11:23:58;;;;;;;46.33;25.33;;;;;;;;;;5065128;27;99391;-68
2022/03/05 11:26:27;;;;;;;42.63;22.35;;;;;;;;;;5071100;27;99990;-67
2022/03/05 11:29:23;;;;;;;43.40;23.90;;;;;;;;;;5068509;27;98514;-68
2022/03/05 11:31:49;;;;;;;44.45;24.80;;;;;;;;;;5066505;27;99290;-67
2022/03/05 11:34:17;;;;;;;41.72;21.15;;;;;;;;;;5067165;27;99533;-67
2022/03/05 11:36:45;;;;;;;44.55;25.05;;;;;;;;;;5067993;27;98577;-67
2022/03/05 11:39:19;;;;;;;41.55;24.90;;;;;;;;;;5067717;27;100060;-67
2022/03/05 11:41:52;;;;;;;38.60;22.15;;;;;;;;;;5066308;27;99771;-68
2022/03/05 11:44:20;;;;;;;40.80;23.48;;;;;;;;;;5065718;27;99123;-68
2022/03/05 11:46:47;;;;;;;39.88;21.17;;;;;;;;;;5067083;27;99059;-68
2022/03/05 11:49:15;;;;;;;37.63;22.50;;;;;;;;;;5070676;27;101238;-68
2022/03/05 11:51:50;;;;;;;43.33;24.40;;;;;;;;;;5067755;27;101104;-68
2022/03/05 11:54:19;;;;;;;38.22;21.10;;;;;;;;;;5067259;27;100002;-68
2022/03/05 11:57:11;;;;;;;45.30;24.88;;;;;;;;;;5067292;27;98567;-68
2022/03/05 11:59:41;;;;;;;38.90;24.83;;;;;;;;;;5066463;27;100160;-68
2022/03/05 12:02:07;;;;;;;37.53;23.85;;;;;;;;;;5066177;27;99217;-68
2022/03/05 12:04:34;;;;;;;41.13;24.45;;;;;;;;;;5067427;27;98557;-68
2022/03/05 12:07:22;;;;;;;40.70;23.33;;;;;;;;;;5067828;27;100034;-68
2022/03/05 12:09:59;;;;;;;45.30;20.98;;;;;;;;;;5067763;27;100237;-67
2022/03/05 12:12:25;;;;;;;39.58;22.27;;;;;;;;;;5069403;27;99155;-68
2022/03/05 12:15:01;;;;;;;39.30;20.88;;;;;;;;;;5064829;27;100656;-68
2022/03/05 12:17:34;;;;;;;37.17;21.52;;;;;;;;;;5067106;27;98558;-67
2022/03/05 12:20:03;;;;;;;35.28;20.48;;;;;;;;;;5066400;27;99112;-67
2022/03/05 12:22:30;;;;;;;35.75;19.33;;;;;;;;;;5067171;27;99812;-67
2022/03/05 12:24:56;;;;;;;35.30;21.40;;;;;;;;;;5066912;27;98500;-67
2022/03/05 12:27:25;;;;;;;37.38;22.25;;;;;;;;;;5047583;27;99214;-67
2022/03/05 12:29:52;;;;;;;34.88;21.13;;;;;;;;;;5056291;27;99662;-68
2022/03/05 12:32:19;;;;;;;38.05;23.88;;;;;;;;;;5069486;27;97766;-68
2022/03/05 12:34:46;;;;;;;43.60;23.65;;;;;;;;;;5072089;27;98629;-67
2022/03/05 12:37:12;;;;;;;40.10;21.73;;;;;;;;;;5070544;27;98570;-70
2022/03/05 12:39:42;;;;;;;42.35;23.00;;;;;;;;;;5070602;27;99260;-67
2022/03/05 12:42:09;;;;;;;36.95;20.85;;;;;;;;;;5069780;27;99630;-67
2022/03/05 12:44:37;;;;;;;35.78;21.65;;;;;;;;;;5070291;27;98625;-67
2022/03/05 12:47:04;;;;;;;34.55;23.17;;;;;;;;;;5069984;27;99168;-67
2022/03/05 12:49:31;;;;;;;34.90;21.30;;;;;;;;;;5069870;27;100015;-67
2022/03/05 12:51:57;;;;;;;40.97;22.08;;;;;;;;;;5069605;27;99723;-67
2022/03/05 12:54:23;;;;;;;36.03;19.75;;;;;;;;;;5070723;27;100209;-67
2022/03/05 12:56:54;;;;;;;39.70;23.30;;;;;;;;;;5074363;27;99094;-66
2022/03/05 12:59:20;;;;;;;42.75;21.85;;;;;;;;;;5071279;27;99795;-67
2022/03/05 13:01:48;;;;;;;34.70;22.67;;;;;;;;;;5069324;27;99362;-67
2022/03/05 13:04:16;;;;;;;42.30;22.83;;;;;;;;;;5069624;27;99757;-67
2022/03/05 13:06:46;;;;;;;44.05;21.73;;;;;;;;;;5069177;27;100851;-67
2022/03/05 13:09:16;;;;;;;36.08;23.15;;;;;;;;;;5069053;27;100041;-67
2022/03/05 13:11:57;;;;;;;40.35;23.58;;;;;;;;;;5070152;27;98550;-67
2022/03/05 13:14:23;;;;;;;41.83;23.83;;;;;;;;;;5069908;27;101139;-67
2022/03/05 13:16:51;;;;;;;39.03;23.75;;;;;;;;;;5073072;27;100236;-68
2022/03/05 13:19:17;;;;;;;41.35;24.58;;;;;;;;;;5070578;27;99989;-67
2022/03/05 13:21:45;;;;;;;38.65;22.42;;;;;;;;;;5070369;27;100191;-67
2022/03/05 13:24:15;;;;;;;33.53;20.35;;;;;;;;;;5069477;27;98573;-67
2022/03/05 13:26:46;;;;;;;42.90;24.38;;;;;;;;;;5070578;27;100065;-67
2022/03/05 13:29:12;;;;;;;37.40;22.98;;;;;;;;;;5067794;27;100434;-67
2022/03/05 13:31:39;;;;;;;39.17;23.90;;;;;;;;;;5068504;27;99434;-68
2022/03/05 13:34:05;;;;;;;34.25;21.67;;;;;;;;;;5069722;27;99156;-67
2022/03/05 13:36:36;;;;;;;39.15;20.10;;;;;;;;;;5068466;27;99433;-67
2022/03/05 13:39:07;;;;;;;30.10;19.50;;;;;;;;;;5072907;27;98496;-67
2022/03/05 13:41:34;;;;;;;33.75;21.85;;;;;;;;;;5070124;27;100086;-67
2022/03/05 13:44:01;;;;;;;38.45;23.67;;;;;;;;;;5067955;27;98645;-67
2022/03/05 13:46:28;;;;;;;37.97;23.67;;;;;;;;;;5069494;27;99137;-67
2022/03/05 13:48:56;;;;;;;31.55;20.95;;;;;;;;;;5070196;27;100395;-67
2022/03/05 13:51:26;;;;;;;31.73;21.02;;;;;;;;;;5069663;27;98539;-67
2022/03/05 13:54:04;;;;;;;38.92;22.92;;;;;;;;;;5068734;27;100050;-67
2022/03/05 13:56:44;;;;;;;41.75;23.35;;;;;;;;;;5069704;27;100218;-67
2022/03/05 13:59:11;;;;;;;31.40;19.48;;;;;;;;;;5069220;27;98516;-67
2022/03/05 14:01:39;;;;;;;42.05;23.63;;;;;;;;;;5071845;27;99989;-67
2022/03/05 14:04:07;;;;;;;35.25;21.33;;;;;;;;;;5069816;27;99251;-67
2022/03/05 14:07:03;;;;;;;37.25;23.35;;;;;;;;;;5069445;27;100012;-67
2022/03/05 14:09:37;;;;;;;39.78;22.13;;;;;;;;;;5051899;27;100684;-69
2022/03/05 14:12:07;;;;;;;37.28;23.65;;;;;;;;;;5068132;27;98187;-67
2022/03/05 14:14:35;;;;;;;36.97;21.02;;;;;;;;;;5069927;27;99431;-67
2022/03/05 14:17:02;;;;;;;32.80;21.98;;;;;;;;;;5067666;27;99708;-68
2022/03/05 14:19:29;;;;;;;32.13;19.67;;;;;;;;;;5068086;27;99567;-68